createdAt,value
2019-06-08T00:00:20.810Z,20.00
2019-06-08T00:02:51.621Z,20.00
2019-06-08T00:05:23.139Z,20.00
2019-06-08T00:07:54.303Z,19.90
2019-06-08T00:10:25.816Z,19.80
2019-06-08T00:12:56.867Z,19.90
2019-06-08T00:15:27.402Z,19.80
2019-06-08T00:17:59.433Z,19.80
2019-06-08T00:20:30.610Z,19.70
2019-06-08T00:23:01.379Z,19.80
2019-06-08T00:25:31.997Z,19.70
2019-06-08T00:28:02.527Z,19.70
2019-06-08T00:30:33.370Z,19.70
2019-06-08T00:33:04.202Z,19.70
2019-06-08T00:35:35.022Z,19.60
2019-06-08T00:38:05.783Z,19.60
2019-06-08T00:40:36.614Z,19.60
2019-06-08T00:43:07.456Z,19.60
2019-06-08T00:45:38.304Z,19.50
2019-06-08T00:48:08.913Z,19.60
2019-06-08T00:50:39.702Z,19.50
2019-06-08T00:53:10.489Z,19.50
2019-06-08T00:55:41.640Z,19.50
2019-06-08T00:58:12.468Z,19.40
2019-06-08T01:00:43.335Z,19.40
2019-06-08T01:03:14.186Z,19.30
2019-06-08T01:05:45.042Z,19.30
2019-06-08T01:08:15.887Z,19.30
2019-06-08T01:10:46.714Z,19.20
2019-06-08T01:13:18.803Z,19.20
2019-06-08T01:15:50.345Z,19.20
2019-06-08T01:18:22.897Z,19.20
2019-06-08T01:20:53.727Z,19.10
2019-06-08T01:23:25.600Z,19.20
2019-06-08T01:25:56.550Z,19.10
2019-06-08T01:28:28.235Z,19.10
2019-06-08T01:30:58.677Z,19.10
2019-06-08T01:33:30.822Z,19.00
2019-06-08T01:36:01.679Z,19.10
2019-06-08T01:38:32.394Z,19.10
2019-06-08T01:41:03.191Z,19.10
2019-06-08T01:43:33.798Z,19.00
2019-06-08T01:46:04.846Z,18.90
2019-06-08T01:48:35.645Z,18.90
2019-06-08T01:51:06.849Z,18.90
2019-06-08T01:53:37.481Z,18.90
2019-06-08T01:56:08.181Z,18.90
2019-06-08T01:58:38.771Z,18.80
2019-06-08T02:01:09.337Z,18.80
2019-06-08T02:03:40.071Z,18.80
2019-06-08T02:06:10.719Z,18.80
2019-06-08T02:08:41.441Z,18.80
2019-06-08T02:11:12.292Z,18.70
2019-06-08T02:13:43.111Z,18.70
2019-06-08T02:16:13.978Z,18.70
2019-06-08T02:18:50.831Z,18.70
2019-06-08T02:21:17.211Z,18.70
2019-06-08T02:23:47.994Z,18.70
2019-06-08T02:26:19.775Z,18.70
2019-06-08T02:28:50.644Z,18.60
2019-06-08T02:31:22.140Z,18.60
2019-06-08T02:33:53.716Z,18.60
2019-06-08T02:36:24.690Z,18.60
2019-06-08T02:38:55.246Z,18.70
2019-06-08T02:41:26.028Z,18.60
2019-06-08T02:43:57.339Z,18.60
2019-06-08T02:46:29.081Z,18.60
2019-06-08T02:49:04.502Z,18.50
2019-06-08T02:51:34.309Z,18.50
2019-06-08T02:54:05.214Z,18.50
2019-06-08T02:56:39.309Z,18.50
2019-06-08T02:59:14.466Z,18.50
2019-06-08T03:01:48.420Z,18.50
2019-06-08T03:04:21.398Z,18.50
2019-06-08T03:06:52.782Z,18.50
2019-06-08T03:09:26.563Z,18.50
2019-06-08T03:11:57.465Z,18.40
2019-06-08T03:14:28.912Z,18.40
2019-06-08T03:16:59.611Z,18.50
2019-06-08T03:19:31.277Z,18.40
2019-06-08T03:22:02.354Z,18.40
2019-06-08T03:24:34.508Z,18.40
2019-06-08T03:27:05.371Z,18.40
2019-06-08T03:29:37.193Z,18.40
2019-06-08T03:32:08.679Z,18.40
2019-06-08T03:34:46.643Z,18.40
2019-06-08T03:37:11.595Z,18.40
2019-06-08T03:39:43.128Z,18.40
2019-06-08T03:42:15.009Z,18.40
2019-06-08T03:44:45.829Z,18.40
2019-06-08T03:47:16.451Z,18.30
2019-06-08T03:49:56.148Z,18.40
2019-06-08T03:52:19.432Z,18.40
2019-06-08T03:54:50.095Z,18.40
2019-06-08T03:57:20.943Z,18.40
2019-06-08T03:59:51.627Z,18.40
2019-06-08T04:02:22.315Z,18.40
2019-06-08T04:04:53.133Z,18.40
2019-06-08T04:07:23.795Z,18.40
2019-06-08T04:09:54.903Z,18.40
2019-06-08T04:12:25.449Z,18.50
2019-06-08T04:14:56.175Z,18.50
2019-06-08T04:17:27.066Z,18.50
2019-06-08T04:20:10.312Z,18.50
2019-06-08T04:22:30.572Z,18.60
2019-06-08T04:25:01.163Z,18.60
2019-06-08T04:27:31.887Z,18.70
2019-06-08T04:30:02.518Z,18.70
2019-06-08T04:32:34.019Z,18.70
2019-06-08T04:35:04.678Z,18.80
2019-06-08T04:37:35.899Z,18.80
2019-06-08T04:40:07.767Z,18.90
2019-06-08T04:42:39.319Z,18.90
2019-06-08T04:45:10.441Z,19.00
2019-06-08T04:47:43.211Z,19.00
2019-06-08T04:50:22.646Z,19.00
2019-06-08T04:52:47.467Z,19.10
2019-06-08T04:55:18.393Z,19.00
2019-06-08T04:57:50.833Z,19.20
2019-06-08T05:00:22.277Z,19.20
2019-06-08T05:02:53.516Z,19.20
2019-06-08T05:05:24.106Z,19.20
2019-06-08T05:07:54.942Z,19.30
2019-06-08T05:10:25.966Z,19.30
2019-06-08T05:12:56.808Z,19.30
2019-06-08T05:15:27.645Z,19.30
2019-06-08T05:17:58.496Z,19.30
2019-06-08T05:20:38.270Z,19.40
2019-06-08T05:23:01.503Z,19.40
2019-06-08T05:25:32.358Z,19.40
2019-06-08T05:28:03.396Z,19.40
2019-06-08T05:30:34.257Z,19.40
2019-06-08T05:33:04.865Z,19.50
2019-06-08T05:35:35.349Z,19.50
2019-06-08T05:38:06.493Z,19.60
2019-06-08T05:40:37.229Z,19.70
2019-06-08T05:43:08.094Z,19.70
2019-06-08T05:45:39.608Z,19.80
2019-06-08T05:48:10.685Z,19.90
2019-06-08T05:50:58.848Z,19.90
2019-06-08T05:53:13.713Z,20.00
2019-06-08T05:55:46.112Z,20.00
2019-06-08T05:58:16.923Z,20.10
2019-06-08T06:00:48.344Z,20.10
2019-06-08T06:03:19.444Z,20.20
2019-06-08T06:05:50.770Z,20.20
2019-06-08T06:08:21.506Z,20.30
2019-06-08T06:10:52.223Z,20.30
2019-06-08T06:13:23.096Z,20.40
2019-06-08T06:15:53.685Z,20.50
2019-06-08T06:18:24.523Z,20.50
2019-06-08T06:21:09.774Z,20.60
2019-06-08T06:23:27.465Z,20.70
2019-06-08T06:25:58.174Z,20.70
2019-06-08T06:28:29.309Z,20.80
2019-06-08T06:30:59.944Z,20.90
2019-06-08T06:33:30.685Z,21.00
2019-06-08T06:36:01.710Z,21.10
2019-06-08T06:38:32.693Z,21.20
2019-06-08T06:41:04.107Z,21.30
2019-06-08T06:43:34.952Z,21.50
2019-06-08T06:46:05.720Z,21.60
2019-06-08T06:48:36.472Z,21.70
2019-06-08T06:51:07.142Z,21.80
2019-06-08T06:53:37.844Z,21.90
2019-06-08T06:56:08.812Z,22.00
2019-06-08T06:58:39.656Z,22.10
2019-06-08T07:01:10.481Z,22.20
2019-06-08T07:03:41.162Z,22.40
2019-06-08T07:06:11.662Z,22.50
2019-06-08T07:08:42.257Z,22.70
2019-06-08T07:11:12.707Z,22.90
2019-06-08T07:13:44.379Z,23.00
2019-06-08T07:16:18.960Z,23.20
2019-06-08T07:18:48.215Z,23.30
2019-06-08T07:21:18.806Z,23.50
2019-06-08T07:23:51.135Z,23.70
2019-06-08T07:26:22.271Z,23.90
2019-06-08T07:28:54.055Z,24.00
2019-06-08T07:31:25.641Z,24.20
2019-06-08T07:33:56.623Z,24.30
2019-06-08T07:36:27.209Z,24.40
2019-06-08T07:38:59.602Z,24.50
2019-06-08T07:41:33.785Z,24.70
2019-06-08T07:44:04.849Z,24.80
2019-06-08T07:46:35.797Z,24.90
2019-06-08T07:49:06.866Z,25.00
2019-06-08T07:51:37.694Z,25.10
2019-06-08T07:54:08.691Z,25.20
2019-06-08T07:56:39.373Z,25.30
2019-06-08T07:59:10.212Z,25.40
2019-06-08T08:01:41.345Z,25.60
2019-06-08T08:04:12.000Z,25.70
2019-06-08T08:06:42.547Z,25.70
2019-06-08T08:09:13.859Z,25.80
2019-06-08T08:11:44.556Z,26.00
2019-06-08T08:14:18.620Z,26.00
2019-06-08T08:16:49.229Z,26.20
2019-06-08T08:19:20.282Z,26.30
2019-06-08T08:21:57.058Z,26.40
2019-06-08T08:24:28.437Z,26.50
2019-06-08T08:27:03.272Z,26.60
2019-06-08T08:29:32.213Z,26.70
2019-06-08T08:32:02.838Z,26.80
2019-06-08T08:34:33.346Z,26.90
2019-06-08T08:37:07.122Z,27.00
2019-06-08T08:39:37.692Z,27.10
2019-06-08T08:42:08.927Z,27.20
2019-06-08T08:44:39.550Z,27.30
2019-06-08T08:47:10.042Z,27.40
2019-06-08T08:49:40.762Z,27.50
2019-06-08T08:52:11.694Z,27.50
2019-06-08T08:54:42.875Z,27.70
2019-06-08T08:57:15.045Z,27.80
2019-06-08T08:59:50.138Z,27.90
2019-06-08T09:02:21.286Z,28.00
2019-06-08T09:04:50.814Z,28.20
2019-06-08T09:07:22.490Z,28.30
2019-06-08T09:09:53.561Z,28.50
2019-06-08T09:12:24.214Z,28.60
2019-06-08T09:14:56.694Z,28.70
2019-06-08T09:17:27.988Z,28.80
2019-06-08T09:20:00.323Z,28.90
2019-06-08T09:22:31.437Z,29.00
2019-06-08T09:25:04.294Z,29.10
2019-06-08T09:27:38.115Z,29.20
2019-06-08T09:30:08.598Z,29.40
2019-06-08T09:32:39.207Z,29.50
2019-06-08T09:35:10.953Z,29.60
2019-06-08T09:37:41.727Z,29.80
2019-06-08T09:40:13.435Z,29.70
2019-06-08T09:42:44.141Z,29.80
2019-06-08T09:45:18.055Z,30.00
2019-06-08T09:47:47.915Z,30.10
2019-06-08T09:50:18.919Z,30.20
2019-06-08T09:53:04.516Z,30.30
2019-06-08T09:55:22.515Z,30.50
2019-06-08T09:57:54.527Z,30.50
2019-06-08T10:00:29.081Z,30.60
2019-06-08T10:03:01.306Z,30.70
2019-06-08T10:05:31.070Z,30.80
2019-06-08T10:08:02.896Z,30.90
2019-06-08T10:10:34.434Z,31.00
2019-06-08T10:13:09.215Z,31.00
2019-06-08T10:15:38.742Z,30.90
2019-06-08T10:18:11.457Z,30.90
2019-06-08T10:20:43.526Z,31.00
2019-06-08T10:23:30.227Z,30.90
2019-06-08T10:25:48.221Z,31.10
2019-06-08T10:28:21.585Z,31.10
2019-06-08T10:30:51.521Z,31.30
2019-06-08T10:33:22.268Z,31.40
2019-06-08T10:35:53.117Z,31.40
2019-06-08T10:38:23.815Z,31.50
2019-06-08T10:41:06.374Z,31.70
2019-06-08T10:43:33.488Z,31.70
2019-06-08T10:46:09.996Z,31.80
2019-06-08T10:48:37.782Z,31.80
2019-06-08T10:51:12.494Z,31.90
2019-06-08T10:53:52.589Z,31.90
2019-06-08T10:56:13.664Z,32.00
2019-06-08T10:58:44.516Z,32.00
2019-06-08T11:01:15.330Z,32.10
2019-06-08T11:03:48.705Z,32.20
2019-06-08T11:06:18.901Z,32.20
2019-06-08T11:08:49.737Z,32.20
2019-06-08T11:11:20.675Z,32.40
2019-06-08T11:13:51.641Z,32.40
2019-06-08T11:16:23.446Z,32.20
2019-06-08T11:18:54.003Z,32.20
2019-06-08T11:21:24.766Z,32.20
2019-06-08T11:24:07.456Z,32.40
2019-06-08T11:26:28.924Z,32.40
2019-06-08T11:29:01.551Z,32.40
2019-06-08T11:31:32.329Z,32.60
2019-06-08T11:34:03.967Z,32.70
2019-06-08T11:36:34.866Z,32.70
2019-06-08T11:39:10.961Z,32.80
2019-06-08T11:41:39.775Z,32.80
2019-06-08T11:44:12.470Z,32.70
2019-06-08T11:46:43.168Z,32.80
2019-06-08T11:49:15.234Z,32.70
2019-06-08T11:51:47.938Z,32.60
2019-06-08T11:54:32.310Z,32.70
2019-06-08T11:56:53.645Z,32.70
2019-06-08T11:59:25.536Z,32.50
2019-06-08T12:01:58.482Z,32.50
2019-06-08T12:04:28.464Z,32.60
2019-06-08T12:07:02.133Z,32.50
2019-06-08T12:09:31.550Z,32.50
2019-06-08T12:12:02.559Z,32.50
2019-06-08T12:14:33.742Z,32.40
2019-06-08T12:17:05.227Z,32.30
2019-06-08T12:19:37.768Z,32.20
2019-06-08T12:22:10.340Z,32.00
2019-06-08T12:24:42.507Z,32.00
2019-06-08T12:27:24.647Z,31.70
2019-06-08T12:29:45.641Z,31.70
2019-06-08T12:32:18.349Z,31.70
2019-06-08T12:34:49.172Z,31.70
2019-06-08T12:37:22.334Z,31.70
2019-06-08T12:39:53.582Z,31.60
2019-06-08T12:42:25.045Z,31.70
2019-06-08T12:44:55.654Z,31.60
2019-06-08T12:47:29.649Z,31.60
2019-06-08T12:49:58.857Z,31.50
2019-06-08T12:52:29.812Z,31.30
2019-06-08T12:55:06.913Z,31.30
2019-06-08T12:57:34.149Z,31.20
2019-06-08T13:00:05.242Z,31.00
2019-06-08T13:02:38.250Z,30.90
2019-06-08T13:05:12.522Z,30.80
2019-06-08T13:07:41.570Z,30.70
2019-06-08T13:10:13.255Z,30.60
2019-06-08T13:12:43.796Z,30.50
2019-06-08T13:15:19.535Z,30.40
2019-06-08T13:17:50.429Z,30.30
2019-06-08T13:20:22.340Z,30.30
2019-06-08T13:22:53.307Z,30.20
2019-06-08T13:25:37.604Z,30.20
2019-06-08T13:27:58.327Z,30.10
2019-06-08T13:30:32.211Z,30.00
2019-06-08T13:33:01.501Z,30.00
2019-06-08T13:35:32.277Z,29.90
2019-06-08T13:38:02.829Z,29.90
2019-06-08T13:40:33.646Z,29.80
2019-06-08T13:43:07.973Z,29.60
2019-06-08T13:45:39.320Z,29.50
2019-06-08T13:48:10.205Z,29.30
2019-06-08T13:50:41.006Z,29.30
2019-06-08T13:53:12.562Z,29.20
2019-06-08T13:55:53.209Z,29.20
2019-06-08T13:58:21.854Z,29.20
2019-06-08T14:00:48.521Z,29.20
2019-06-08T14:03:21.299Z,29.10
2019-06-08T14:05:51.323Z,29.00
2019-06-08T14:08:22.917Z,28.90
2019-06-08T14:10:54.504Z,28.90
2019-06-08T14:13:27.797Z,28.90
2019-06-08T14:15:58.595Z,28.80
2019-06-08T14:18:33.872Z,28.70
2019-06-08T14:21:01.471Z,28.70
2019-06-08T14:23:32.125Z,28.60
2019-06-08T14:26:03.173Z,28.60
2019-06-08T14:28:33.777Z,28.60
2019-06-08T14:31:04.409Z,28.60
2019-06-08T14:33:37.991Z,28.60
2019-06-08T14:36:08.110Z,28.50
2019-06-08T14:38:42.088Z,28.50
2019-06-08T14:41:11.022Z,28.30
2019-06-08T14:43:41.801Z,28.30
2019-06-08T14:46:12.445Z,28.30
2019-06-08T14:48:45.207Z,28.30
2019-06-08T14:51:15.646Z,28.20
2019-06-08T14:53:48.539Z,28.20
2019-06-08T14:56:20.156Z,28.10
2019-06-08T14:58:51.478Z,28.10
2019-06-08T15:01:23.914Z,28.00
2019-06-08T15:03:54.441Z,28.00
2019-06-08T15:06:27.778Z,27.90
2019-06-08T15:08:58.213Z,27.80
2019-06-08T15:11:34.802Z,27.70
2019-06-08T15:14:01.191Z,27.70
2019-06-08T15:16:32.873Z,27.70
2019-06-08T15:19:04.373Z,27.70
2019-06-08T15:21:35.099Z,27.60
2019-06-08T15:24:07.971Z,27.70
2019-06-08T15:26:44.886Z,27.60
2019-06-08T15:29:11.266Z,27.60
2019-06-08T15:31:42.149Z,27.50
2019-06-08T15:34:13.336Z,27.50
2019-06-08T15:36:43.970Z,27.50
2019-06-08T15:39:17.385Z,27.40
2019-06-08T15:41:48.726Z,27.40
2019-06-08T15:44:21.691Z,27.40
2019-06-08T15:46:51.862Z,27.30
2019-06-08T15:49:22.621Z,27.40
2019-06-08T15:51:53.260Z,27.30
2019-06-08T15:54:24.640Z,27.20
2019-06-08T15:56:58.337Z,27.20
2019-06-08T15:59:35.044Z,27.10
2019-06-08T16:02:00.277Z,27.00
2019-06-08T16:04:31.810Z,27.00
2019-06-08T16:07:02.861Z,27.00
2019-06-08T16:09:34.230Z,27.00
2019-06-08T16:12:05.277Z,26.90
2019-06-08T16:14:36.109Z,26.80
2019-06-08T16:17:07.040Z,26.70
2019-06-08T16:19:37.936Z,26.70
2019-06-08T16:22:08.536Z,26.60
2019-06-08T16:24:39.294Z,26.60
2019-06-08T16:27:10.085Z,26.70
2019-06-08T16:29:40.709Z,26.60
2019-06-08T16:32:11.229Z,26.50
2019-06-08T16:34:41.809Z,26.50
2019-06-08T16:37:12.847Z,26.40
2019-06-08T16:39:43.654Z,26.40
2019-06-08T16:42:14.516Z,26.40
2019-06-08T16:44:45.881Z,26.30
2019-06-08T16:47:16.495Z,26.30
2019-06-08T16:49:47.111Z,26.20
2019-06-08T16:52:17.974Z,26.20
2019-06-08T16:54:48.925Z,26.20
2019-06-08T16:57:19.841Z,26.00
2019-06-08T16:59:50.678Z,26.00
2019-06-08T17:02:21.385Z,25.90
2019-06-08T17:04:52.077Z,25.80
2019-06-08T17:07:22.859Z,25.70
2019-06-08T17:09:53.755Z,25.60
2019-06-08T17:12:24.309Z,25.60
2019-06-08T17:14:54.843Z,25.50
2019-06-08T17:17:25.595Z,25.50
2019-06-08T17:19:56.289Z,25.50
2019-06-08T17:22:26.741Z,25.40
2019-06-08T17:24:57.508Z,25.40
2019-06-08T17:27:28.349Z,25.30
2019-06-08T17:29:58.950Z,25.30
2019-06-08T17:32:29.499Z,25.30
2019-06-08T17:35:00.478Z,25.20
2019-06-08T17:37:31.650Z,25.20
2019-06-08T17:40:02.355Z,25.10
2019-06-08T17:42:33.643Z,25.10
2019-06-08T17:45:05.941Z,25.00
2019-06-08T17:47:36.410Z,25.00
2019-06-08T17:50:08.660Z,24.90
2019-06-08T17:52:39.494Z,24.80
2019-06-08T17:55:11.010Z,24.80
2019-06-08T17:57:51.402Z,24.80
2019-06-08T18:00:14.867Z,24.70
2019-06-08T18:02:48.356Z,24.70
2019-06-08T18:05:19.218Z,24.70
2019-06-08T18:07:49.800Z,24.60
2019-06-08T18:10:22.404Z,24.50
2019-06-08T18:12:53.009Z,24.50
2019-06-08T18:15:23.778Z,24.40
2019-06-08T18:17:54.603Z,24.50
2019-06-08T18:20:27.727Z,24.40
2019-06-08T18:22:58.154Z,24.30
2019-06-08T18:25:29.001Z,24.30
2019-06-08T18:28:09.156Z,24.20
2019-06-08T18:30:34.499Z,24.20
2019-06-08T18:33:07.030Z,24.20
2019-06-08T18:35:41.228Z,24.20
2019-06-08T18:38:11.433Z,24.10
2019-06-08T18:40:43.358Z,24.10
2019-06-08T18:43:14.108Z,24.00
2019-06-08T18:45:46.321Z,24.00
2019-06-08T18:48:17.572Z,23.90
2019-06-08T18:50:48.805Z,23.80
2019-06-08T18:53:19.889Z,23.70
2019-06-08T18:55:50.828Z,23.60
2019-06-08T18:58:24.991Z,23.60
2019-06-08T19:00:54.584Z,23.60
2019-06-08T19:03:25.642Z,23.50
2019-06-08T19:05:57.883Z,23.40
2019-06-08T19:08:28.738Z,23.40
2019-06-08T19:10:59.512Z,23.30
2019-06-08T19:13:30.499Z,23.30
2019-06-08T19:16:01.278Z,23.20
2019-06-08T19:18:32.025Z,23.10
2019-06-08T19:21:03.034Z,23.10
2019-06-08T19:23:33.748Z,23.00
2019-06-08T19:26:04.670Z,22.90
2019-06-08T19:28:40.619Z,22.80
2019-06-08T19:31:10.373Z,22.70
2019-06-08T19:33:41.533Z,22.70
2019-06-08T19:36:13.228Z,22.70
2019-06-08T19:38:44.642Z,22.70
2019-06-08T19:41:17.540Z,22.60
2019-06-08T19:43:54.495Z,22.60
2019-06-08T19:46:21.239Z,22.50
2019-06-08T19:48:54.811Z,22.50
2019-06-08T19:51:24.495Z,22.40
2019-06-08T19:53:58.051Z,22.40
2019-06-08T19:56:28.917Z,22.30
2019-06-08T19:59:04.659Z,22.30
2019-06-08T20:01:32.261Z,22.30
2019-06-08T20:04:04.241Z,22.20
2019-06-08T20:06:37.217Z,22.10
2019-06-08T20:09:08.488Z,22.10
2019-06-08T20:11:44.254Z,22.10
2019-06-08T20:14:11.614Z,22.10
2019-06-08T20:16:42.710Z,22.00
2019-06-08T20:19:13.557Z,22.00
2019-06-08T20:21:44.994Z,22.00
2019-06-08T20:24:18.453Z,21.90
2019-06-08T20:26:54.401Z,21.90
2019-06-08T20:29:22.695Z,21.90
2019-06-08T20:31:53.854Z,21.80
2019-06-08T20:34:26.592Z,21.70
2019-06-08T20:37:01.175Z,21.70
2019-06-08T20:39:29.798Z,21.50
2019-06-08T20:42:00.411Z,21.50
2019-06-08T20:44:31.138Z,21.30
2019-06-08T20:47:01.942Z,21.30
2019-06-08T20:49:32.547Z,21.20
2019-06-08T20:52:04.611Z,21.10
2019-06-08T20:54:36.796Z,21.10
2019-06-08T20:57:07.792Z,21.00
2019-06-08T20:59:40.041Z,20.90
2019-06-08T21:02:10.625Z,20.80
2019-06-08T21:04:41.470Z,20.80
2019-06-08T21:07:12.874Z,20.70
2019-06-08T21:09:44.878Z,20.70
2019-06-08T21:12:17.786Z,20.60
2019-06-08T21:14:51.958Z,20.60
2019-06-08T21:17:21.310Z,20.50
2019-06-08T21:19:53.098Z,20.50
2019-06-08T21:22:23.897Z,20.50
2019-06-08T21:24:56.844Z,20.40
2019-06-08T21:27:27.694Z,20.30
2019-06-08T21:30:06.844Z,20.30
2019-06-08T21:32:30.973Z,20.30
2019-06-08T21:35:01.744Z,20.30
2019-06-08T21:37:33.764Z,20.20
2019-06-08T21:40:05.520Z,20.10
2019-06-08T21:42:37.069Z,20.10
2019-06-08T21:45:09.679Z,20.10
2019-06-08T21:47:41.073Z,20.00
2019-06-08T21:50:12.002Z,20.00
2019-06-08T21:52:42.934Z,20.00
2019-06-08T21:55:14.085Z,19.90
2019-06-08T21:57:44.856Z,19.80
2019-06-08T22:00:35.773Z,19.80
2019-06-08T22:02:51.800Z,19.80
2019-06-08T22:05:23.111Z,19.80
2019-06-08T22:07:54.080Z,19.80
2019-06-08T22:10:25.090Z,19.70
2019-06-08T22:12:59.636Z,19.70
2019-06-08T22:15:28.104Z,19.70
2019-06-08T22:18:00.168Z,19.70
2019-06-08T22:20:31.496Z,19.70
2019-06-08T22:23:03.653Z,19.60
2019-06-08T22:25:34.725Z,19.60
2019-06-08T22:28:07.192Z,19.60
2019-06-08T22:30:42.675Z,19.50
2019-06-08T22:33:10.722Z,19.50
2019-06-08T22:35:41.205Z,19.50
2019-06-08T22:38:12.034Z,19.50
2019-06-08T22:40:42.573Z,19.50
2019-06-08T22:43:13.142Z,19.40
2019-06-08T22:45:43.835Z,19.40
2019-06-08T22:48:14.466Z,19.40
2019-06-08T22:50:47.533Z,19.40
2019-06-08T22:53:17.710Z,19.30
2019-06-08T22:55:48.409Z,19.30
2019-06-08T22:58:19.337Z,19.30
2019-06-08T23:00:52.864Z,19.30
2019-06-08T23:03:22.270Z,19.30
2019-06-08T23:05:54.864Z,19.20
2019-06-08T23:08:25.193Z,19.20
2019-06-08T23:10:58.881Z,19.10
2019-06-08T23:13:28.586Z,19.10
2019-06-08T23:16:01.297Z,19.10
2019-06-08T23:18:32.857Z,19.10
2019-06-08T23:21:04.253Z,19.00
2019-06-08T23:23:35.162Z,19.00
2019-06-08T23:26:10.146Z,19.00
2019-06-08T23:28:37.943Z,19.00
2019-06-08T23:31:19.425Z,19.00
2019-06-08T23:33:41.509Z,18.90
2019-06-08T23:38:44.577Z,18.80
2019-06-08T23:41:17.547Z,18.80
2019-06-08T23:43:48.198Z,18.70
2019-06-08T23:46:18.984Z,18.70
2019-06-08T23:48:49.851Z,18.60
2019-06-08T23:51:20.705Z,18.60
2019-06-08T23:53:52.290Z,18.60
2019-06-08T23:56:22.949Z,18.50
2019-06-08T23:58:53.826Z,18.60
